Hauptseite
METAR-TAF:

METAR-TAF

Flughäfen :

Fliegerhorst Ingolstadt/Manching

Ingolstadt, Deutschland

Breite: 48-43N, Länge: 011-32E, Höhe: 367 m

Beobachtung

Neuester Wetterbericht von vor 41 Minuten, um 14:20 UTC
Wind 11 kt aus Nordwest
Temperatur 7°C
Luftfeuchtigkeit 49%
Luftdruck 1027 hPa
Sichtweite 10 km oder mehr
Leicht bewölkt in der Höhe von 3500 ft
Durchbrochene Bewölkung in der Höhe von 5000 ft

METAR: ETSI 261420Z 32011KT 9999 FEW035 BKN050 07/M03 Q1027 BLU BLU

Zeit: 16:01 (15:01 UTC)

Prognose

Neuester Wetterbericht von vor 46 Minuten, um 14:15 UTC
Gültige Prognose vom 26 um 15 UTC bis 26 um 24 UTC
Wind 8 kt aus West/Nordwest
Sichtweite: 1520 m
Leicht bewölkt in der Höhe von 3500 ft
Durchbrochene Bewölkung in der Höhe von 5000 ft

TAF: ETSI 261415Z 2615/2624 30008KT 9999 NSW FEW035 BKN050 CANCEL 1520

Wetterbeobachtungen und Prognosen von mehr als 4000 Flughäfen (METAR und TAF Bericht).

Die verfügbaren Stationen werden durch gelbe und rote Markierungen auf der Karte dargestellt.

Führen Sie die Maus auf sie, um den Namen der Station zu sehen.

Darauf klicken, um die Beobachtung von Wetterbeobachtungen und Prognosen zu sehen.

Um die Karte zu ändern : klicken Sie auf den grünen Tasten mit einem schwarzen Kreuz Zum Vergrößern, auf den grünen Button mit einem Gedankenstrich zu verkleinern, oder auf die grünen Pfeile für benachbarte Karten.


METAR-TAF: